Terminal Aerodrome Forecast
Issued by NWS

Home | Current Version | Previous Version | Text Only | Print | Product List | Glossary Off
Versions: 1 2 3 4 5 6 7 8 9 10 11 12 13 14 15 16 17 18 19 20 21 22 23 24 25 26

398
FTUS43 KABR 051830 AAA
TAFPIR
TAF AMD
KPIR 051830Z 0519/0618 33021G35KT P6SM BKN016
     FM052300 31026G38KT P6SM BKN020
     FM060100 30025G35KT P6SM BKN040
     FM061100 29017G25KT P6SM SCT050=

USA.gov is the U.S. government's official web portal to all federal, state and local government web resources and services.